Time;durP1;ratioP1;P1;durP2;ratioP2;P2;SDS_P1;SDS_P2;PMS_P1;PMS_P2;Temp;Humidity;BMP_temperature;BMP_pressure;BME280_temperature;BME280_humidity;BME280_pressure;Samples;Min_cycle;Max_cycle;Signal;HPM_P1;HPM_P2
2021/12/30 00:00:55;;;;;;;0.08;0.08;;;10.00;99.90;;;;;;5015451;28;20113;-79
2021/12/30 00:03:21;;;;;;;0.17;0.17;;;10.10;99.90;;;;;;5013986;28;20448;-78
2021/12/30 00:05:47;;;;;;;0.00;0.00;;;10.00;99.90;;;;;;5014015;28;20125;-78
2021/12/30 00:08:13;;;;;;;0.00;0.00;;;10.10;99.90;;;;;;5015077;28;20379;-77
2021/12/30 00:10:40;;;;;;;0.10;0.00;;;10.10;99.90;;;;;;5015148;28;20080;-77
2021/12/30 00:13:06;;;;;;;0.00;0.00;;;10.10;99.90;;;;;;5015072;28;20436;-78
2021/12/30 00:15:33;;;;;;;0.00;0.00;;;10.10;99.90;;;;;;5015131;28;20084;-77
2021/12/30 00:17:59;;;;;;;0.00;0.00;;;10.20;99.90;;;;;;5013828;28;20068;-77
2021/12/30 00:20:26;;;;;;;0.00;0.00;;;10.20;99.90;;;;;;5014827;28;20017;-77
2021/12/30 00:22:52;;;;;;;0.00;0.00;;;10.20;99.90;;;;;;5013836;28;20474;-78
2021/12/30 00:25:18;;;;;;;0.00;0.00;;;10.20;99.90;;;;;;5013575;28;20029;-78
2021/12/30 00:27:44;;;;;;;0.00;0.00;;;10.30;99.90;;;;;;5014876;28;20030;-77
2021/12/30 00:30:12;;;;;;;0.00;0.00;;;10.30;99.90;;;;;;5015078;28;20134;-78
2021/12/30 00:32:38;;;;;;;0.00;0.00;;;10.30;99.90;;;;;;5014717;28;20026;-78
2021/12/30 00:35:05;;;;;;;0.10;0.08;;;10.30;99.90;;;;;;5015010;28;20061;-77
2021/12/30 00:37:31;;;;;;;0.00;0.00;;;10.30;99.90;;;;;;5014262;28;20029;-77
2021/12/30 00:39:57;;;;;;;0.08;0.08;;;10.30;99.90;;;;;;5013258;28;20025;-77
2021/12/30 00:42:23;;;;;;;0.00;0.00;;;10.40;99.90;;;;;;5014963;28;20026;-75
2021/12/30 00:44:48;;;;;;;0.00;0.00;;;10.30;99.90;;;;;;5014685;28;20030;-77
2021/12/30 00:47:14;;;;;;;0.00;0.00;;;10.40;99.90;;;;;;5013192;28;20394;-76
2021/12/30 00:49:40;;;;;;;0.10;0.10;;;10.40;99.90;;;;;;5014463;28;20026;-76
2021/12/30 00:52:06;;;;;;;0.00;0.00;;;10.40;99.90;;;;;;5013276;28;20481;-76
2021/12/30 00:54:31;;;;;;;0.05;0.05;;;10.40;99.90;;;;;;5014335;28;20124;-76
2021/12/30 00:56:59;;;;;;;0.00;0.00;;;10.40;99.90;;;;;;5014132;28;20022;-76
2021/12/30 00:59:25;;;;;;;0.00;0.00;;;10.40;99.90;;;;;;5012963;28;20025;-76
2021/12/30 01:01:51;;;;;;;0.00;0.00;;;10.40;99.90;;;;;;5014197;28;20363;-76
2021/12/30 01:04:18;;;;;;;0.00;0.00;;;10.40;99.90;;;;;;4996566;28;20478;-77
2021/12/30 01:06:44;;;;;;;0.10;0.10;;;10.40;99.90;;;;;;5014128;28;20053;-76
2021/12/30 01:09:10;;;;;;;0.00;0.00;;;10.40;99.90;;;;;;5013820;28;20025;-76
2021/12/30 01:11:36;;;;;;;0.20;0.20;;;10.40;99.90;;;;;;5012764;28;20125;-76
2021/12/30 01:14:14;;;;;;;0.00;0.00;;;10.40;99.90;;;;;;5012548;28;20113;-76
2021/12/30 01:16:43;;;;;;;0.00;0.00;;;10.40;99.90;;;;;;5013750;28;20045;-76
2021/12/30 01:21:55;;;;;;;0.00;0.00;;;10.40;99.90;;;;;;5012635;28;20378;-78
2021/12/30 01:24:22;;;;;;;0.10;0.10;;;10.50;99.90;;;;;;5012631;28;20033;-76
2021/12/30 01:26:48;;;;;;;0.13;0.13;;;10.40;99.90;;;;;;5013492;28;20029;-76
2021/12/30 01:29:14;;;;;;;0.00;0.00;;;10.50;99.90;;;;;;5012455;28;20072;-76
2021/12/30 01:31:40;;;;;;;0.00;0.00;;;10.50;99.90;;;;;;5013608;28;20045;-76
2021/12/30 01:34:06;;;;;;;0.00;0.00;;;10.40;99.90;;;;;;5012252;28;20034;-76
2021/12/30 01:36:31;;;;;;;0.00;0.00;;;10.50;99.90;;;;;;5012140;28;20050;-76
2021/12/30 01:38:57;;;;;;;0.00;0.00;;;10.50;99.90;;;;;;5013447;28;20485;-76
2021/12/30 01:41:23;;;;;;;0.00;0.00;;;10.50;99.90;;;;;;5013738;28;20473;-76
2021/12/30 01:43:49;;;;;;;0.00;0.00;;;10.40;99.90;;;;;;4995862;28;20049;-76
2021/12/30 01:46:17;;;;;;;0.00;0.00;;;10.40;99.90;;;;;;5013309;28;20029;-77
2021/12/30 01:48:42;;;;;;;0.00;0.00;;;10.50;99.90;;;;;;5012672;28;20080;-76
2021/12/30 01:51:09;;;;;;;0.00;0.00;;;10.50;99.90;;;;;;5013275;28;20034;-76
2021/12/30 01:53:35;;;;;;;0.00;0.00;;;10.50;99.90;;;;;;5013079;28;20044;-76
2021/12/30 01:56:03;;;;;;;0.00;0.00;;;10.50;99.90;;;;;;5013068;28;20029;-76
2021/12/30 01:58:30;;;;;;;0.00;0.00;;;10.50;99.90;;;;;;5013264;28;20429;-76
2021/12/30 02:00:55;;;;;;;0.00;0.00;;;10.50;99.90;;;;;;5013224;28;20450;-76
2021/12/30 02:03:22;;;;;;;0.00;0.00;;;10.50;99.90;;;;;;5013148;28;20064;-76
2021/12/30 02:05:48;;;;;;;0.00;0.00;;;10.50;99.90;;;;;;5012968;28;20118;-76
2021/12/30 02:08:16;;;;;;;0.00;0.00;;;10.50;99.90;;;;;;5012849;28;20288;-76
2021/12/30 02:10:44;;;;;;;0.00;0.00;;;10.60;99.90;;;;;;5013072;28;20500;-76
2021/12/30 02:13:12;;;;;;;0.00;0.00;;;10.60;99.90;;;;;;5012985;28;20099;-76
2021/12/30 02:15:38;;;;;;;0.10;0.10;;;10.60;99.90;;;;;;5012783;28;20075;-76
2021/12/30 02:18:04;;;;;;;0.00;0.00;;;10.50;99.90;;;;;;5012781;28;20549;-76
2021/12/30 02:20:57;;;;;;;0.00;0.00;;;10.60;99.90;;;;;;5012579;28;20041;-76
2021/12/30 02:23:29;;;;;;;0.00;0.00;;;10.60;99.90;;;;;;5010222;28;20041;-75
2021/12/30 02:25:58;;;;;;;0.00;0.00;;;10.60;99.90;;;;;;5012900;28;20026;-76
2021/12/30 02:28:28;;;;;;;0.00;0.00;;;10.60;99.90;;;;;;5012631;28;20038;-75
2021/12/30 02:30:56;;;;;;;0.00;0.00;;;10.60;99.90;;;;;;5012542;28;20073;-76
2021/12/30 02:33:22;;;;;;;0.00;0.00;;;10.60;99.90;;;;;;5012766;28;20111;-76
2021/12/30 02:35:48;;;;;;;0.00;0.00;;;10.60;99.90;;;;;;5012384;28;20037;-76
2021/12/30 02:38:16;;;;;;;0.00;0.00;;;10.60;99.90;;;;;;5012641;28;20033;-76
2021/12/30 02:40:45;;;;;;;0.10;0.10;;;10.60;99.90;;;;;;5012401;28;20021;-76
2021/12/30 02:43:15;;;;;;;0.10;0.00;;;10.60;99.90;;;;;;5011253;28;20523;-75
2021/12/30 02:45:41;;;;;;;0.10;0.10;;;10.60;99.90;;;;;;5012469;28;20022;-76
2021/12/30 02:48:19;;;;;;;0.00;0.00;;;10.60;99.90;;;;;;5012742;28;20371;-75
2021/12/30 02:50:46;;;;;;;0.00;0.00;;;10.60;99.90;;;;;;5012409;28;20018;-75
2021/12/30 02:53:13;;;;;;;0.10;0.10;;;10.70;99.90;;;;;;5011006;28;20026;-76
2021/12/30 02:55:39;;;;;;;0.00;0.00;;;10.70;99.90;;;;;;5012275;28;20026;-76
2021/12/30 02:58:05;;;;;;;0.00;0.00;;;10.70;99.90;;;;;;5011558;28;20021;-75
2021/12/30 03:00:31;;;;;;;0.00;0.00;;;10.60;99.90;;;;;;5012176;28;20113;-75
2021/12/30 03:02:57;;;;;;;0.00;0.00;;;10.70;99.90;;;;;;5012359;28;20057;-75
2021/12/30 03:05:24;;;;;;;0.00;0.00;;;10.70;99.90;;;;;;5012338;28;20415;-76
2021/12/30 03:07:51;;;;;;;0.00;0.00;;;10.70;99.90;;;;;;5011716;28;20054;-76
2021/12/30 03:10:21;;;;;;;0.00;0.00;;;10.70;99.90;;;;;;5011977;28;20018;-76
2021/12/30 03:12:55;;;;;;;0.10;0.10;;;10.70;99.90;;;;;;5012276;28;20438;-76
2021/12/30 03:15:21;;;;;;;0.00;0.00;;;10.70;99.90;;;;;;5010745;28;20026;-76
2021/12/30 03:17:47;;;;;;;0.00;0.00;;;10.70;99.90;;;;;;5012428;28;20112;-76
2021/12/30 03:20:13;;;;;;;0.00;0.00;;;10.70;99.90;;;;;;5011835;28;20061;-76
2021/12/30 03:22:40;;;;;;;0.00;0.00;;;10.70;99.90;;;;;;5012240;28;20040;-75
2021/12/30 03:25:08;;;;;;;0.00;0.00;;;10.70;99.90;;;;;;5010763;28;20084;-75
2021/12/30 03:27:35;;;;;;;0.00;0.00;;;10.70;99.90;;;;;;5011831;28;20029;-75
2021/12/30 03:30:04;;;;;;;0.00;0.00;;;10.70;99.90;;;;;;5012253;28;20482;-75
2021/12/30 03:32:29;;;;;;;0.20;0.20;;;10.70;99.90;;;;;;5011698;28;20030;-75
2021/12/30 03:34:55;;;;;;;0.05;0.05;;;10.70;99.90;;;;;;5011798;28;20046;-76
2021/12/30 03:37:21;;;;;;;0.00;0.00;;;10.70;99.90;;;;;;5011999;28;20018;-75
2021/12/30 03:39:48;;;;;;;0.10;0.10;;;10.70;99.90;;;;;;5011841;28;20034;-75
2021/12/30 03:42:15;;;;;;;0.10;0.10;;;10.70;99.90;;;;;;5012165;28;20026;-76
2021/12/30 03:44:41;;;;;;;0.00;0.00;;;10.70;99.90;;;;;;5010575;28;20105;-76
2021/12/30 03:47:12;;;;;;;0.00;0.00;;;10.70;99.90;;;;;;5010479;28;20026;-76
2021/12/30 03:49:38;;;;;;;0.00;0.00;;;10.80;99.90;;;;;;5010562;28;20028;-76
2021/12/30 03:52:04;;;;;;;0.00;0.00;;;10.70;99.90;;;;;;5010580;28;20026;-75
2021/12/30 03:54:30;;;;;;;0.00;0.00;;;10.70;99.90;;;;;;5023225;23;20137;-72
2021/12/30 03:56:56;;;;;;;0.20;0.10;;;10.70;99.90;;;;;;5011630;28;20053;-72
2021/12/30 03:59:22;;;;;;;0.00;0.00;;;10.70;99.90;;;;;;5010565;28;20037;-72
2021/12/30 04:01:47;;;;;;;0.00;0.00;;;10.70;99.90;;;;;;5011736;28;20026;-72
2021/12/30 04:04:13;;;;;;;0.00;0.00;;;10.80;99.90;;;;;;5011807;28;20083;-72
2021/12/30 04:06:39;;;;;;;0.10;0.10;;;10.70;99.90;;;;;;5011310;28;20477;-72
2021/12/30 04:09:06;;;;;;;0.00;0.00;;;10.80;99.90;;;;;;5011710;28;20034;-72
2021/12/30 04:11:34;;;;;;;0.00;0.00;;;10.70;99.90;;;;;;5012562;28;20057;-72
2021/12/30 04:14:01;;;;;;;0.00;0.00;;;10.70;99.90;;;;;;5014039;28;20113;-72
2021/12/30 04:16:27;;;;;;;0.10;0.10;;;10.70;99.90;;;;;;5013700;28;20069;-72
2021/12/30 04:18:53;;;;;;;0.00;0.00;;;10.70;99.90;;;;;;5013759;28;20510;-72
2021/12/30 04:21:20;;;;;;;0.13;0.13;;;10.80;99.90;;;;;;5015147;28;20065;-72
2021/12/30 04:23:46;;;;;;;0.00;0.00;;;10.70;99.90;;;;;;5015156;28;20030;-72
2021/12/30 04:26:12;;;;;;;0.00;0.00;;;10.70;99.90;;;;;;5014932;28;20385;-72
2021/12/30 04:28:39;;;;;;;0.08;0.08;;;10.70;99.90;;;;;;5013718;28;20034;-74
2021/12/30 04:31:05;;;;;;;0.00;0.00;;;10.70;99.90;;;;;;5015048;28;20022;-72
2021/12/30 04:33:31;;;;;;;0.00;0.00;;;10.70;99.90;;;;;;5014757;28;20465;-72
2021/12/30 04:35:57;;;;;;;0.10;0.10;;;10.70;99.90;;;;;;5014702;28;20112;-72
2021/12/30 04:38:25;;;;;;;0.00;0.00;;;10.70;99.90;;;;;;5014823;28;20033;-72
2021/12/30 04:40:51;;;;;;;0.00;0.00;;;10.70;99.90;;;;;;5013561;28;20385;-72
2021/12/30 04:43:17;;;;;;;0.00;0.00;;;10.70;99.90;;;;;;5014665;28;20108;-72
2021/12/30 04:45:44;;;;;;;0.00;0.00;;;10.60;99.90;;;;;;5014594;28;20061;-72
2021/12/30 04:48:10;;;;;;;0.00;0.00;;;10.70;99.90;;;;;;5014530;28;20555;-73
2021/12/30 04:50:36;;;;;;;0.00;0.00;;;10.70;99.90;;;;;;5014433;28;20022;-72
2021/12/30 04:53:03;;;;;;;0.00;0.00;;;10.70;99.90;;;;;;5013273;28;20061;-72
2021/12/30 04:55:28;;;;;;;0.10;0.10;;;10.70;99.90;;;;;;5014742;28;20366;-73
2021/12/30 04:57:55;;;;;;;0.00;0.00;;;10.70;99.90;;;;;;5014373;28;20026;-72
2021/12/30 05:00:21;;;;;;;0.00;0.00;;;10.70;99.90;;;;;;5014282;28;20482;-72
2021/12/30 05:05:25;;;;;;;0.00;0.00;;;10.80;99.90;;;;;;5014391;28;20440;-72
2021/12/30 05:07:50;;;;;;;0.00;0.00;;;10.70;99.90;;;;;;5014253;28;20505;-72
2021/12/30 05:10:16;;;;;;;0.00;0.00;;;10.80;99.90;;;;;;5014200;28;20097;-72
2021/12/30 05:12:42;;;;;;;0.00;0.00;;;10.80;99.90;;;;;;5012949;28;20508;-72
2021/12/30 05:15:08;;;;;;;0.00;0.00;;;10.70;99.90;;;;;;5013970;28;20494;-72
2021/12/30 05:17:35;;;;;;;0.10;0.10;;;10.70;99.90;;;;;;5013911;28;20052;-72
2021/12/30 05:20:02;;;;;;;0.00;0.00;;;10.70;99.90;;;;;;5013922;28;20026;-71
2021/12/30 05:22:27;;;;;;;0.00;0.00;;;10.70;99.90;;;;;;5013627;28;20068;-72
2021/12/30 05:24:53;;;;;;;0.52;0.17;;;10.80;99.90;;;;;;5013496;28;20389;-71
2021/12/30 05:27:19;;;;;;;0.00;0.00;;;10.80;99.90;;;;;;5013658;28;20034;-72
2021/12/30 05:29:46;;;;;;;0.10;0.10;;;10.80;99.90;;;;;;5014017;28;20033;-72
2021/12/30 05:32:12;;;;;;;0.00;0.00;;;10.80;99.90;;;;;;5012694;28;20026;-71
2021/12/30 05:34:38;;;;;;;0.00;0.00;;;10.70;99.90;;;;;;5013781;28;20533;-72
2021/12/30 05:37:04;;;;;;;0.00;0.00;;;10.80;99.90;;;;;;5013651;28;20109;-71
2021/12/30 05:39:30;;;;;;;0.00;0.00;;;10.80;99.90;;;;;;5013657;28;20104;-72
2021/12/30 05:41:56;;;;;;;0.28;0.20;;;10.70;99.90;;;;;;5013540;28;20022;-72
2021/12/30 05:44:22;;;;;;;0.00;0.00;;;10.80;99.90;;;;;;4996079;28;20033;-72
2021/12/30 05:46:48;;;;;;;0.10;0.10;;;10.80;99.90;;;;;;5013464;28;20424;-71
2021/12/30 05:49:13;;;;;;;0.00;0.00;;;10.80;99.90;;;;;;5013638;28;20037;-71
2021/12/30 05:51:41;;;;;;;0.00;0.00;;;10.80;99.90;;;;;;5014093;28;20092;-71
2021/12/30 05:54:07;;;;;;;0.00;0.00;;;10.80;99.90;;;;;;5013605;28;20057;-75
2021/12/30 05:56:33;;;;;;;0.00;0.00;;;10.80;99.90;;;;;;5012017;28;20084;-73
2021/12/30 05:58:59;;;;;;;0.00;0.00;;;10.80;99.90;;;;;;5012039;28;20022;-73
2021/12/30 06:01:25;;;;;;;0.03;0.03;;;10.70;99.90;;;;;;5013295;28;20376;-72
2021/12/30 06:03:50;;;;;;;0.00;0.00;;;10.80;99.90;;;;;;5013292;28;20030;-72
2021/12/30 06:06:16;;;;;;;0.00;0.00;;;10.80;99.90;;;;;;5013222;28;20036;-72
2021/12/30 06:08:42;;;;;;;0.00;0.00;;;10.80;99.90;;;;;;5013216;28;20022;-72
2021/12/30 06:11:07;;;;;;;0.00;0.00;;;10.80;99.90;;;;;;5013169;28;20033;-72
2021/12/30 06:13:33;;;;;;;0.00;0.00;;;10.80;99.90;;;;;;5013074;28;20060;-72
2021/12/30 06:15:59;;;;;;;0.00;0.00;;;10.80;99.90;;;;;;5012727;28;20022;-72
2021/12/30 06:18:25;;;;;;;0.00;0.00;;;10.80;99.90;;;;;;5013170;28;20026;-72
2021/12/30 06:20:51;;;;;;;0.00;0.00;;;10.80;99.90;;;;;;5011803;28;20022;-72
2021/12/30 06:23:16;;;;;;;0.00;0.00;;;10.80;99.90;;;;;;5012884;28;20525;-72
2021/12/30 06:25:42;;;;;;;0.00;0.00;;;10.80;99.90;;;;;;5012719;28;20021;-72
2021/12/30 06:28:08;;;;;;;0.00;0.00;;;10.80;99.90;;;;;;5012881;28;20037;-72
2021/12/30 06:30:34;;;;;;;0.00;0.00;;;10.80;99.90;;;;;;5012801;28;20482;-72
2021/12/30 06:33:00;;;;;;;0.00;0.00;;;10.80;99.90;;;;;;5012808;28;20022;-73
2021/12/30 06:35:31;;;;;;;0.00;0.00;;;10.80;99.90;;;;;;5012445;28;20095;-72
2021/12/30 06:37:59;;;;;;;0.03;0.03;;;10.80;99.90;;;;;;5011471;28;20025;-72
2021/12/30 06:40:24;;;;;;;0.00;0.00;;;10.80;99.90;;;;;;5012627;28;20359;-72
2021/12/30 06:42:50;;;;;;;0.00;0.00;;;10.90;99.90;;;;;;5011447;28;20080;-72
2021/12/30 06:45:16;;;;;;;0.10;0.10;;;10.90;99.90;;;;;;5012703;28;20030;-72
2021/12/30 06:47:44;;;;;;;0.75;0.40;;;10.90;99.90;;;;;;5012366;28;20076;-72
2021/12/30 06:50:12;;;;;;;0.00;0.00;;;10.90;99.90;;;;;;5012433;28;20045;-72
2021/12/30 06:52:38;;;;;;;0.28;0.20;;;10.90;99.90;;;;;;5012444;28;20038;-72
2021/12/30 06:55:04;;;;;;;0.40;0.30;;;10.90;99.90;;;;;;5012379;28;20064;-72
2021/12/30 06:57:30;;;;;;;0.00;0.00;;;10.90;99.90;;;;;;5012409;28;20018;-72
2021/12/30 06:59:56;;;;;;;0.28;0.28;;;10.90;99.90;;;;;;5012421;28;20034;-72
2021/12/30 07:02:23;;;;;;;0.00;0.00;;;10.90;99.90;;;;;;5012422;28;20500;-72
2021/12/30 07:04:48;;;;;;;0.20;0.20;;;10.90;99.90;;;;;;5012235;28;20022;-72
2021/12/30 07:07:14;;;;;;;0.47;0.25;;;11.00;99.90;;;;;;5012234;28;20038;-72
2021/12/30 07:09:40;;;;;;;0.10;0.10;;;11.00;99.90;;;;;;5012129;28;20017;-72
2021/12/30 07:12:06;;;;;;;0.10;0.10;;;11.00;99.90;;;;;;5012364;28;20026;-71
2021/12/30 07:14:32;;;;;;;0.20;0.10;;;11.00;99.90;;;;;;5011012;28;20109;-72
2021/12/30 07:16:58;;;;;;;0.00;0.00;;;11.00;99.90;;;;;;5011786;28;20100;-71
2021/12/30 07:19:23;;;;;;;0.00;0.00;;;11.00;99.90;;;;;;5012250;28;20046;-73
2021/12/30 07:21:50;;;;;;;0.00;0.00;;;11.00;99.90;;;;;;5012170;28;20401;-73
2021/12/30 07:24:17;;;;;;;0.00;0.00;;;11.00;99.90;;;;;;5011096;28;20394;-73
2021/12/30 07:26:43;;;;;;;0.00;0.00;;;11.10;99.90;;;;;;5012040;28;20101;-72
2021/12/30 07:29:08;;;;;;;0.00;0.00;;;11.10;99.90;;;;;;5012121;28;20122;-72
2021/12/30 07:31:34;;;;;;;0.00;0.00;;;11.10;99.90;;;;;;5012193;28;20086;-72
2021/12/30 07:34:00;;;;;;;0.10;0.10;;;11.10;99.90;;;;;;5011894;28;20044;-72
2021/12/30 07:36:26;;;;;;;0.00;0.00;;;11.10;99.90;;;;;;5012182;28;20113;-72
2021/12/30 07:38:52;;;;;;;0.00;0.00;;;11.10;99.90;;;;;;5011885;28;20030;-72
2021/12/30 07:41:18;;;;;;;0.17;0.17;;;11.10;99.90;;;;;;5010946;28;20453;-72
2021/12/30 07:43:44;;;;;;;0.00;0.00;;;11.10;99.90;;;;;;5012142;28;20076;-72
2021/12/30 07:46:10;;;;;;;0.10;0.10;;;11.10;99.90;;;;;;5010742;28;20022;-72
2021/12/30 07:48:37;;;;;;;0.00;0.00;;;11.10;99.90;;;;;;5015832;28;20053;-72
2021/12/30 07:51:04;;;;;;;0.00;0.00;;;11.10;99.90;;;;;;5015713;28;20579;-73
2021/12/30 07:53:31;;;;;;;0.00;0.00;;;11.10;99.90;;;;;;5015345;28;20121;-73
2021/12/30 07:55:57;;;;;;;0.00;0.00;;;11.10;99.90;;;;;;5015511;28;20381;-73
2021/12/30 07:58:22;;;;;;;2.10;0.35;;;11.20;99.90;;;;;;5015672;28;20022;-73
2021/12/30 08:00:48;;;;;;;0.00;0.00;;;11.10;99.90;;;;;;5015572;28;20026;-73
2021/12/30 08:03:14;;;;;;;1.38;0.13;;;11.10;99.90;;;;;;5015749;28;20055;-72
2021/12/30 08:05:40;;;;;;;0.00;0.00;;;11.00;99.90;;;;;;5015298;28;20026;-73
2021/12/30 08:08:06;;;;;;;0.00;0.00;;;11.00;99.90;;;;;;5015348;28;20022;-73
2021/12/30 08:10:32;;;;;;;2.08;0.28;;;11.00;99.90;;;;;;5013936;28;20021;-73
2021/12/30 08:12:58;;;;;;;0.00;0.00;;;10.90;99.90;;;;;;5013925;28;20037;-73
2021/12/30 08:15:24;;;;;;;0.00;0.00;;;10.90;99.90;;;;;;5015008;28;20026;-73
2021/12/30 08:17:50;;;;;;;0.00;0.00;;;10.90;99.90;;;;;;5015043;28;20034;-73
2021/12/30 08:20:18;;;;;;;0.00;0.00;;;10.80;99.90;;;;;;5015116;28;20024;-73
2021/12/30 08:22:44;;;;;;;0.00;0.00;;;10.90;99.90;;;;;;5015078;28;20037;-73
2021/12/30 08:25:12;;;;;;;0.13;0.10;;;10.90;99.90;;;;;;5013710;28;20113;-73
2021/12/30 08:27:38;;;;;;;0.05;0.05;;;10.90;99.90;;;;;;5014683;28;20492;-72
2021/12/30 08:30:07;;;;;;;0.00;0.00;;;10.90;99.90;;;;;;5014812;28;20029;-72
2021/12/30 08:32:33;;;;;;;0.03;0.03;;;10.80;99.90;;;;;;5014930;28;20497;-72
2021/12/30 08:34:59;;;;;;;0.00;0.00;;;10.80;99.90;;;;;;5014787;28;20064;-72
2021/12/30 08:37:25;;;;;;;0.00;0.00;;;10.90;99.90;;;;;;5015225;28;20462;-72
2021/12/30 08:39:51;;;;;;;0.00;0.00;;;10.90;99.90;;;;;;5015379;28;20042;-73
2021/12/30 08:42:22;;;;;;;0.00;0.00;;;10.90;99.90;;;;;;5014886;28;20540;-73
2021/12/30 08:44:48;;;;;;;0.00;0.00;;;10.90;99.90;;;;;;5013717;28;20052;-73
2021/12/30 08:47:15;;;;;;;0.00;0.00;;;10.90;99.90;;;;;;5014821;28;20057;-74
2021/12/30 08:49:44;;;;;;;0.55;0.03;;;10.90;99.90;;;;;;5014720;28;20422;-74
2021/12/30 08:52:14;;;;;;;0.10;0.10;;;10.90;99.90;;;;;;5014506;28;20328;-74
2021/12/30 08:54:40;;;;;;;0.00;0.00;;;10.90;99.90;;;;;;5014210;28;20498;-74
2021/12/30 08:57:06;;;;;;;0.08;0.08;;;10.90;99.90;;;;;;5012722;28;20109;-75
2021/12/30 08:59:32;;;;;;;0.00;0.00;;;10.90;99.90;;;;;;5014180;28;20026;-73
2021/12/30 09:01:58;;;;;;;0.00;0.00;;;10.90;99.90;;;;;;5014424;28;20026;-73
2021/12/30 09:04:24;;;;;;;0.10;0.10;;;10.90;99.90;;;;;;5014186;28;20033;-73
2021/12/30 09:06:49;;;;;;;0.00;0.00;;;10.90;99.90;;;;;;5014635;28;20037;-75
2021/12/30 09:09:15;;;;;;;0.00;0.00;;;10.90;99.90;;;;;;5013864;28;20026;-73
2021/12/30 09:11:41;;;;;;;0.00;0.00;;;10.90;99.90;;;;;;5014278;28;20021;-74
2021/12/30 09:14:06;;;;;;;0.00;0.00;;;10.90;99.90;;;;;;5014050;28;20025;-74
2021/12/30 09:16:32;;;;;;;0.20;0.20;;;10.90;99.90;;;;;;5013762;28;20022;-73
2021/12/30 09:18:58;;;;;;;0.88;0.63;;;10.90;99.90;;;;;;5013734;28;20036;-73
2021/12/30 09:21:24;;;;;;;0.00;0.00;;;10.90;99.90;;;;;;5018715;28;20382;-74
2021/12/30 09:23:50;;;;;;;0.10;0.10;;;10.90;99.90;;;;;;5017251;28;20026;-74
2021/12/30 09:26:16;;;;;;;0.05;0.05;;;10.90;99.90;;;;;;5013397;28;20385;-73
2021/12/30 09:28:41;;;;;;;0.20;0.20;;;10.90;99.90;;;;;;5012339;28;20061;-72
2021/12/30 09:31:07;;;;;;;0.38;0.38;;;10.90;99.90;;;;;;5013435;28;20068;-74
2021/12/30 09:33:33;;;;;;;0.00;0.00;;;10.80;99.90;;;;;;5012433;28;20504;-74
2021/12/30 09:36:01;;;;;;;0.00;0.00;;;10.80;99.90;;;;;;5013619;28;20079;-73
2021/12/30 09:38:28;;;;;;;3.10;1.25;;;10.80;99.90;;;;;;5013584;28;20021;-74
2021/12/30 09:40:54;;;;;;;0.00;0.00;;;10.70;99.90;;;;;;5012381;28;20038;-74
2021/12/30 09:43:20;;;;;;;0.00;0.00;;;10.80;99.90;;;;;;5012245;28;20025;-72
2021/12/30 09:45:46;;;;;;;0.00;0.00;;;10.80;99.90;;;;;;5013353;28;20393;-73
2021/12/30 09:48:14;;;;;;;0.00;0.00;;;10.90;99.90;;;;;;5013240;28;20021;-73
2021/12/30 09:50:52;;;;;;;0.00;0.00;;;10.90;99.90;;;;;;5013283;28;20022;-74
2021/12/30 09:53:22;;;;;;;0.05;0.05;;;11.00;99.90;;;;;;5036794;23;20040;-92
2021/12/30 09:55:49;;;;;;;0.00;0.00;;;11.00;99.90;;;;;;5019236;28;20022;-93
2021/12/30 09:58:15;;;;;;;0.47;0.10;;;11.10;99.90;;;;;;5019484;28;20105;-92
2021/12/30 10:00:41;;;;;;;0.00;0.00;;;11.10;99.90;;;;;;5019417;28;20021;-93
2021/12/30 10:03:07;;;;;;;0.00;0.00;;;11.20;99.90;;;;;;5036090;28;20025;-92
2021/12/30 10:05:37;;;;;;;0.10;0.10;;;11.20;99.90;;;;;;5002018;28;20483;-92
2021/12/30 10:08:19;;;;;;;0.00;0.00;;;11.20;99.90;;;;;;5012653;28;20056;-90
2021/12/30 10:10:50;;;;;;;0.10;0.00;;;11.20;99.90;;;;;;5020700;28;20353;-90
2021/12/30 10:13:21;;;;;;;0.03;0.00;;;11.20;99.90;;;;;;5020613;28;20018;-90
2021/12/30 10:15:53;;;;;;;0.00;0.00;;;11.20;99.90;;;;;;5020924;28;20025;-90
2021/12/30 10:18:19;;;;;;;;;;;11.30;99.90;;;;;;5021353;28;20022;-90
2021/12/30 10:20:48;;;;;;;0.00;0.00;;;11.40;99.90;;;;;;5021019;28;19929;-91
2021/12/30 10:23:22;;;;;;;0.00;0.00;;;11.40;99.90;;;;;;5020799;28;20082;-89
2021/12/30 10:25:56;;;;;;;0.00;0.00;;;11.50;99.90;;;;;;5020839;28;20022;-90
2021/12/30 10:28:36;;;;;;;0.00;0.00;;;11.50;99.90;;;;;;5003474;28;20025;-90
2021/12/30 10:31:12;;;;;;;0.00;0.00;;;11.40;99.90;;;;;;5013809;28;20022;-92
2021/12/30 10:33:51;;;;;;;0.10;0.10;;;11.50;99.90;;;;;;4989985;28;20086;-91
2021/12/30 10:36:26;;;;;;;0.00;0.00;;;11.50;99.90;;;;;;4994817;28;20049;-91
2021/12/30 10:38:53;;;;;;;0.00;0.00;;;11.80;99.90;;;;;;5003444;28;20029;-91
2021/12/30 10:41:24;;;;;;;0.00;0.00;;;12.00;99.90;;;;;;5003842;28;20103;-92
2021/12/30 10:43:55;;;;;;;0.17;0.10;;;12.10;99.90;;;;;;5007016;28;20044;-91
2021/12/30 10:46:26;;;;;;;0.03;0.03;;;12.00;99.90;;;;;;5006453;28;20030;-91
2021/12/30 10:49:05;;;;;;;0.00;0.00;;;11.80;99.90;;;;;;5007682;28;20346;-90
2021/12/30 10:51:49;;;;;;;0.00;0.00;;;11.80;99.90;;;;;;5006520;28;20026;-92
2021/12/30 10:54:21;;;;;;;0.00;0.00;;;11.80;99.90;;;;;;5005719;28;20037;-91
2021/12/30 10:57:04;;;;;;;0.38;0.15;;;11.90;99.90;;;;;;5007096;28;20025;-92
2021/12/30 10:59:50;;;;;;;0.00;0.00;;;11.80;99.90;;;;;;5006016;28;20030;-90
2021/12/30 11:02:21;;;;;;;0.00;0.00;;;11.70;99.90;;;;;;5002141;28;20084;-90
2021/12/30 11:05:00;;;;;;;0.00;0.00;;;11.70;99.90;;;;;;5012494;28;20041;-91
2021/12/30 11:07:44;;;;;;;0.00;0.00;;;11.70;99.90;;;;;;5007814;28;20030;-92
2021/12/30 11:10:11;;;;;;;0.50;0.10;;;11.70;99.90;;;;;;5012594;28;20034;-93
2021/12/30 11:12:41;;;;;;;0.22;0.10;;;11.70;99.90;;;;;;5012634;28;20006;-93
2021/12/30 11:15:28;;;;;;;0.10;0.10;;;11.70;99.90;;;;;;5012453;28;20026;-92
2021/12/30 11:18:08;;;;;;;0.32;0.32;;;11.60;99.90;;;;;;5012983;28;20022;-94
2021/12/30 11:20:47;;;;;;;0.35;0.35;;;11.80;99.90;;;;;;5012328;28;20052;-92
2021/12/30 11:23:15;;;;;;;0.15;0.15;;;11.90;99.90;;;;;;5014053;28;20018;-94
2021/12/30 11:25:42;;;;;;;0.00;0.00;;;11.90;99.90;;;;;;5013997;28;20033;-93
2021/12/30 11:28:07;;;;;;;0.00;0.00;;;11.90;99.90;;;;;;5015497;28;20057;-94
2021/12/30 11:30:33;;;;;;;0.00;0.00;;;11.80;99.90;;;;;;5015662;28;20029;-93
2021/12/30 11:32:59;;;;;;;1.05;0.40;;;11.80;99.90;;;;;;5018192;28;20026;-94
2021/12/30 11:35:27;;;;;;;0.00;0.00;;;11.80;99.90;;;;;;5012371;28;20578;-92
2021/12/30 11:37:54;;;;;;;0.10;0.10;;;11.80;99.90;;;;;;5015039;28;20018;-92
2021/12/30 11:40:24;;;;;;;0.00;0.00;;;11.70;99.90;;;;;;5020161;28;20023;-93
2021/12/30 11:42:53;;;;;;;0.10;0.00;;;11.80;99.90;;;;;;5030474;28;20064;-92
2021/12/30 11:45:39;;;;;;;0.00;0.00;;;11.90;99.90;;;;;;5011863;28;20038;-94
2021/12/30 11:48:12;;;;;;;0.00;0.00;;;11.90;99.90;;;;;;5026059;28;20089;-92
2021/12/30 11:50:39;;;;;;;2.17;0.17;;;11.90;99.90;;;;;;5039941;28;20025;-92
2021/12/30 11:53:13;;;;;;;0.30;0.30;;;12.00;99.90;;;;;;5034780;28;20029;-93
2021/12/30 11:56:03;;;;;;;0.00;0.00;;;12.10;99.90;;;;;;5031841;28;20040;-92
2021/12/30 11:58:29;;;;;;;0.00;0.00;;;12.10;99.90;;;;;;5012912;28;20046;-94
2021/12/30 12:01:00;;;;;;;0.00;0.00;;;12.10;99.90;;;;;;5004164;28;20029;-91
2021/12/30 12:03:43;;;;;;;0.38;0.38;;;12.10;99.90;;;;;;5007714;28;20026;-93
2021/12/30 12:06:24;;;;;;;0.05;0.03;;;12.10;99.90;;;;;;5005229;28;20022;-93
2021/12/30 12:08:55;;;;;;;0.00;0.00;;;12.20;99.90;;;;;;5005727;28;20022;-93
2021/12/30 12:11:30;;;;;;;0.00;0.00;;;12.20;99.90;;;;;;5005186;28;20022;-92
2021/12/30 12:14:34;;;;;;;0.00;0.00;;;12.10;99.90;;;;;;5018928;28;20087;-92
2021/12/30 12:17:04;;;;;;;0.25;0.10;;;12.10;99.90;;;;;;5010887;28;20045;-91
2021/12/30 12:19:43;;;;;;;0.10;0.00;;;12.10;99.90;;;;;;5013392;28;20030;-93
2021/12/30 12:22:26;;;;;;;0.10;0.10;;;12.20;99.90;;;;;;5008080;28;20017;-93
2021/12/30 12:25:04;;;;;;;0.00;0.00;;;12.20;99.90;;;;;;4996571;28;20022;-91
2021/12/30 12:27:36;;;;;;;0.03;0.03;;;12.20;99.90;;;;;;5005509;28;20026;-91
2021/12/30 12:30:06;;;;;;;0.00;0.00;;;12.30;99.90;;;;;;5004700;28;20056;-91
2021/12/30 12:32:34;;;;;;;0.00;0.00;;;12.30;99.90;;;;;;5004379;28;20026;-91
2021/12/30 12:35:13;;;;;;;0.00;0.00;;;12.30;99.90;;;;;;5004636;28;20040;-91
2021/12/30 12:37:44;;;;;;;0.00;0.00;;;12.30;99.90;;;;;;5006670;28;20022;-92
2021/12/30 12:40:21;;;;;;;0.20;0.10;;;12.30;99.90;;;;;;5003090;28;20055;-91
2021/12/30 12:42:53;;;;;;;0.10;0.10;;;12.20;99.90;;;;;;5004842;28;20022;-91
2021/12/30 12:45:27;;;;;;;0.00;0.00;;;12.20;99.90;;;;;;5005264;28;20120;-91
2021/12/30 12:48:17;;;;;;;0.00;0.00;;;12.20;99.90;;;;;;5005733;28;20039;-92
2021/12/30 12:50:52;;;;;;;0.00;0.00;;;12.20;99.90;;;;;;5004561;28;20077;-90
2021/12/30 12:53:24;;;;;;;0.00;0.00;;;12.20;99.90;;;;;;5004699;28;20036;-92
2021/12/30 12:55:53;;;;;;;;;;;12.30;99.90;;;;;;5010287;28;20018;-90
2021/12/30 12:58:21;;;;;;;0.00;0.00;;;12.20;99.90;;;;;;5005582;28;19913;-91